Terminal Aerodrome Forecast
Issued by NWS

Home | Current Version | Previous Version | Text Only | Print | Product List | Glossary On
Versions: 1 2 3 4 5 6 7 8 9 10 11 12 13 14
810
FTUS45 KPIH 232320
TAFSUN
TAF
KSUN 232320Z 2400/2506 32012KT P6SM VCSH SCT040 BKN060 OVC090
     FM240300 31009KT P6SM SCT030 BKN040 OVC060
     FM240600 31005KT P6SM FEW030 BKN060
     FM241800 13010KT P6SM SCT050
     FM242300 31011KT P6SM SCT050
      AMD LTD TO CLD VIS AND WIND 2405/2413=

USA.gov is the U.S. government's official web portal to all federal, state and local government web resources and services.